createdAt,value
2017-02-04T00:00:09.243Z,20.57
2017-02-04T00:00:37.405Z,20.67
2017-02-04T00:01:05.363Z,20.72
2017-02-04T00:01:33.544Z,20.63
2017-02-04T00:02:01.690Z,20.66
2017-02-04T00:02:29.851Z,20.68
2017-02-04T00:02:57.977Z,20.67
2017-02-04T00:03:26.110Z,20.67
2017-02-04T00:03:54.081Z,20.78
2017-02-04T00:04:22.119Z,20.85
2017-02-04T00:04:50.145Z,20.68
2017-02-04T00:05:18.292Z,20.76
2017-02-04T00:05:46.539Z,20.75
2017-02-04T00:06:14.907Z,20.75
2017-02-04T00:06:42.979Z,20.74
2017-02-04T00:07:11.132Z,20.72
2017-02-04T00:07:39.353Z,20.75
2017-02-04T00:08:07.476Z,20.75
2017-02-04T00:08:35.521Z,20.78
2017-02-04T00:09:03.460Z,20.71
2017-02-04T00:09:31.573Z,20.71
2017-02-04T00:09:59.481Z,20.67
2017-02-04T00:10:27.454Z,20.72
2017-02-04T00:10:55.680Z,20.68
2017-02-04T00:11:23.821Z,20.67
2017-02-04T00:11:51.941Z,20.66
2017-02-04T00:12:19.774Z,20.72
2017-02-04T00:12:47.921Z,20.72
2017-02-04T00:13:16.090Z,20.74
2017-02-04T00:13:44.245Z,20.82
2017-02-04T00:14:12.364Z,20.74
2017-02-04T00:14:40.526Z,20.79
2017-02-04T00:15:08.779Z,20.79
2017-02-04T00:15:36.855Z,20.78
2017-02-04T00:16:04.919Z,20.85
2017-02-04T00:16:33.289Z,20.78
2017-02-04T00:17:01.524Z,20.82
2017-02-04T00:17:29.586Z,20.83
2017-02-04T00:17:57.648Z,20.79
2017-02-04T00:18:25.814Z,20.79
2017-02-04T00:18:53.960Z,20.83
2017-02-04T00:19:22.093Z,20.79
2017-02-04T00:19:50.259Z,20.81
2017-02-04T00:20:18.409Z,20.78
2017-02-04T00:20:46.526Z,20.76
2017-02-04T00:21:14.802Z,20.78
2017-02-04T00:21:42.955Z,20.75
2017-02-04T00:22:11.105Z,20.75
2017-02-04T00:22:39.367Z,20.76
2017-02-04T00:23:07.468Z,20.81
2017-02-04T00:23:35.633Z,20.71
2017-02-04T00:24:03.767Z,20.71
2017-02-04T00:24:31.909Z,20.71
2017-02-04T00:24:59.846Z,20.68
2017-02-04T00:25:27.958Z,20.68
2017-02-04T00:25:56.201Z,20.6
2017-02-04T00:26:24.334Z,20.63
2017-02-04T00:26:52.402Z,20.71
2017-02-04T00:27:20.558Z,20.57
2017-02-04T00:27:48.557Z,20.58
2017-02-04T00:28:16.788Z,20.61
2017-02-04T00:28:44.830Z,20.64
2017-02-04T00:29:13.068Z,20.61
2017-02-04T00:29:41.180Z,20.54
2017-02-04T00:30:09.448Z,20.64
2017-02-04T00:30:37.549Z,20.66
2017-02-04T00:31:05.605Z,20.6
2017-02-04T00:31:33.966Z,20.53
2017-02-04T00:32:01.844Z,20.67
2017-02-04T00:32:30.001Z,20.64
2017-02-04T00:32:58.070Z,20.67
2017-02-04T00:33:26.305Z,20.74
2017-02-04T00:33:54.514Z,20.72
2017-02-04T00:34:22.798Z,20.67
2017-02-04T00:34:50.969Z,20.72
2017-02-04T00:35:19.000Z,20.71
2017-02-04T00:35:47.227Z,20.66
2017-02-04T00:36:15.429Z,20.66
2017-02-04T00:36:43.581Z,20.66
2017-02-04T00:37:11.735Z,20.68
2017-02-04T00:37:39.713Z,20.68
2017-02-04T00:38:07.970Z,20.68
2017-02-04T00:38:35.889Z,20.72
2017-02-04T00:39:04.041Z,20.72
2017-02-04T00:39:32.185Z,20.78
2017-02-04T00:40:00.313Z,20.71
2017-02-04T00:40:28.408Z,20.68
2017-02-04T00:40:56.413Z,20.68
2017-02-04T00:41:24.644Z,20.63
2017-02-04T00:41:52.899Z,20.57
2017-02-04T00:42:21.066Z,20.64
2017-02-04T00:42:49.215Z,20.64
2017-02-04T00:43:17.231Z,20.63
2017-02-04T00:43:45.479Z,20.57
2017-02-04T00:44:13.618Z,20.56
2017-02-04T00:44:41.666Z,20.63
2017-02-04T00:45:09.540Z,20.61
2017-02-04T00:45:37.573Z,20.61
2017-02-04T00:46:05.723Z,20.63
2017-02-04T00:46:34.013Z,20.57
2017-02-04T00:47:02.071Z,20.61
2017-02-04T00:47:30.361Z,20.54
2017-02-04T00:47:58.305Z,20.57
2017-02-04T00:48:26.568Z,20.54
2017-02-04T00:48:54.651Z,20.57
2017-02-04T00:49:22.942Z,20.61
2017-02-04T00:49:51.162Z,20.61
2017-02-04T00:50:19.114Z,20.54
2017-02-04T00:50:47.335Z,20.58
2017-02-04T00:51:15.418Z,20.6
2017-02-04T00:51:43.696Z,20.63
2017-02-04T00:52:11.902Z,20.64
2017-02-04T00:52:40.090Z,20.68
2017-02-04T00:53:08.206Z,20.67
2017-02-04T00:53:36.335Z,20.66
2017-02-04T00:54:04.467Z,20.72
2017-02-04T00:54:32.527Z,20.67
2017-02-04T00:55:00.687Z,20.67
2017-02-04T00:55:28.955Z,20.68
2017-02-04T00:55:56.998Z,20.71
2017-02-04T00:56:25.161Z,20.68
2017-02-04T00:56:53.367Z,20.66
2017-02-04T00:57:21.429Z,20.61
2017-02-04T00:57:49.385Z,20.56
2017-02-04T00:58:17.443Z,20.58
2017-02-04T00:58:45.646Z,20.58
2017-02-04T00:59:13.827Z,20.6
2017-02-04T00:59:41.890Z,20.54
2017-02-04T01:00:10.070Z,20.46
2017-02-04T01:00:38.200Z,20.46
2017-02-04T01:01:06.153Z,20.48
2017-02-04T01:01:34.395Z,20.49
2017-02-04T01:02:02.473Z,20.48
2017-02-04T01:02:30.636Z,20.3
2017-02-04T01:02:58.582Z,20.38
2017-02-04T01:03:26.618Z,20.34
2017-02-04T01:03:54.805Z,20.41
2017-02-04T01:04:23.039Z,20.34
2017-02-04T01:04:51.244Z,20.4
2017-02-04T01:05:19.531Z,20.34
2017-02-04T01:05:47.660Z,20.42
2017-02-04T01:06:15.629Z,20.41
2017-02-04T01:06:43.731Z,20.41
2017-02-04T01:07:11.776Z,20.44
2017-02-04T01:07:39.812Z,20.4
2017-02-04T01:08:07.910Z,20.3
2017-02-04T01:08:35.909Z,20.49
2017-02-04T01:09:04.100Z,20.51
2017-02-04T01:09:32.291Z,20.46
2017-02-04T01:10:00.341Z,20.54
2017-02-04T01:10:28.596Z,20.58
2017-02-04T01:10:56.733Z,20.57
2017-02-04T01:11:24.900Z,20.56
2017-02-04T01:11:53.272Z,20.58
2017-02-04T01:12:21.469Z,20.66
2017-02-04T01:12:49.720Z,20.57
2017-02-04T01:13:17.792Z,20.64
2017-02-04T01:13:45.973Z,20.57
2017-02-04T01:14:14.051Z,20.57
2017-02-04T01:14:42.221Z,20.61
2017-02-04T01:15:10.449Z,20.67
2017-02-04T01:15:38.684Z,20.57
2017-02-04T01:16:06.843Z,20.58
2017-02-04T01:16:34.747Z,20.63
2017-02-04T01:17:03.034Z,20.6
2017-02-04T01:17:31.175Z,20.58
2017-02-04T01:17:59.254Z,20.61
2017-02-04T01:18:27.332Z,20.6
2017-02-04T01:18:55.492Z,20.64
2017-02-04T01:19:23.697Z,20.64
2017-02-04T01:19:51.773Z,20.61
2017-02-04T01:20:19.888Z,20.61
2017-02-04T01:20:48.050Z,20.6
2017-02-04T01:21:16.073Z,20.6
2017-02-04T01:21:44.142Z,20.63
2017-02-04T01:22:12.396Z,20.58
2017-02-04T01:22:40.647Z,20.6
2017-02-04T01:23:08.878Z,20.63
2017-02-04T01:23:37.093Z,20.6
2017-02-04T01:24:05.212Z,20.56
2017-02-04T01:24:33.490Z,20.61
2017-02-04T01:25:01.574Z,20.61
2017-02-04T01:25:29.569Z,20.56
2017-02-04T01:25:57.828Z,20.57
2017-02-04T01:26:26.024Z,20.6
2017-02-04T01:26:54.340Z,20.44
2017-02-04T01:27:22.675Z,20.57
2017-02-04T01:27:50.844Z,20.57
2017-02-04T01:28:18.941Z,20.56
2017-02-04T01:28:46.940Z,20.46
2017-02-04T01:29:14.962Z,20.48
2017-02-04T01:29:43.097Z,20.44
2017-02-04T01:30:11.335Z,20.51
2017-02-04T01:30:39.329Z,20.54
2017-02-04T01:31:07.477Z,20.48
2017-02-04T01:31:35.746Z,20.49
2017-02-04T01:32:03.911Z,20.53
2017-02-04T01:32:32.157Z,20.49
2017-02-04T01:33:00.214Z,20.48
2017-02-04T01:33:28.280Z,20.46
2017-02-04T01:33:56.560Z,20.42
2017-02-04T01:34:24.747Z,20.44
2017-02-04T01:34:52.761Z,20.48
2017-02-04T01:35:20.795Z,20.53
2017-02-04T01:35:48.839Z,20.54
2017-02-04T01:36:16.815Z,20.49
2017-02-04T01:36:44.853Z,20.58
2017-02-04T01:37:13.124Z,20.56
2017-02-04T01:37:41.199Z,20.49
2017-02-04T01:38:09.448Z,20.6
2017-02-04T01:38:37.581Z,20.54
2017-02-04T01:39:05.804Z,20.51
2017-02-04T01:39:33.837Z,20.61
2017-02-04T01:40:01.965Z,20.58
2017-02-04T01:40:29.959Z,20.57
2017-02-04T01:40:58.106Z,20.6
2017-02-04T01:41:26.318Z,20.51
2017-02-04T01:41:54.466Z,20.56
2017-02-04T01:42:22.471Z,20.48
2017-02-04T01:42:50.555Z,20.54
2017-02-04T01:43:18.782Z,20.64
2017-02-04T01:43:46.801Z,20.56
2017-02-04T01:44:14.856Z,20.53
2017-02-04T01:44:42.821Z,20.57
2017-02-04T01:45:10.916Z,20.57
2017-02-04T01:45:39.062Z,20.61
2017-02-04T01:46:07.127Z,20.63
2017-02-04T01:46:35.256Z,20.54
2017-02-04T01:47:03.192Z,20.58
2017-02-04T01:47:31.443Z,20.63
2017-02-04T01:47:59.593Z,20.6
2017-02-04T01:48:27.474Z,20.56
2017-02-04T01:48:55.734Z,20.61
2017-02-04T01:49:23.851Z,20.64
2017-02-04T01:49:51.966Z,20.57
2017-02-04T01:50:20.094Z,20.57
2017-02-04T01:50:48.250Z,20.6
2017-02-04T01:51:16.224Z,20.63
2017-02-04T01:51:44.157Z,20.61
2017-02-04T01:52:12.393Z,20.64
2017-02-04T01:52:40.610Z,20.57
2017-02-04T01:53:08.679Z,20.61
2017-02-04T01:53:36.806Z,20.58
2017-02-04T01:54:05.039Z,20.54
2017-02-04T01:54:33.121Z,20.58
2017-02-04T01:55:01.023Z,20.6
2017-02-04T01:55:29.176Z,20.57
2017-02-04T01:55:57.319Z,20.54
2017-02-04T01:56:25.446Z,20.61
2017-02-04T01:56:53.409Z,20.64
2017-02-04T01:57:21.711Z,20.58
2017-02-04T01:57:49.969Z,20.49
2017-02-04T01:58:18.216Z,20.46
2017-02-04T01:58:46.358Z,20.46
2017-02-04T01:59:14.413Z,20.46
2017-02-04T01:59:42.473Z,20.48
2017-02-04T02:00:10.639Z,20.58
2017-02-04T02:00:38.616Z,20.56
2017-02-04T02:01:06.677Z,20.49
2017-02-04T02:01:34.961Z,20.56
2017-02-04T02:02:03.216Z,20.56
2017-02-04T02:02:31.438Z,20.57
2017-02-04T02:02:59.435Z,20.63
2017-02-04T02:03:27.397Z,20.58
2017-02-04T02:03:55.554Z,20.58
2017-02-04T02:04:23.804Z,20.56
2017-02-04T02:04:52.053Z,20.56
2017-02-04T02:05:20.168Z,20.6
2017-02-04T02:05:48.246Z,20.57
2017-02-04T02:06:16.515Z,20.61
2017-02-04T02:06:44.661Z,20.58
2017-02-04T02:07:12.899Z,20.54
2017-02-04T02:07:40.961Z,20.57
2017-02-04T02:08:09.191Z,20.6
2017-02-04T02:08:37.234Z,20.6
2017-02-04T02:09:05.163Z,20.54
2017-02-04T02:09:33.389Z,20.58
2017-02-04T02:10:01.433Z,20.56
2017-02-04T02:10:29.570Z,20.54
2017-02-04T02:10:57.764Z,20.56
2017-02-04T02:11:25.943Z,20.61
2017-02-04T02:11:54.082Z,20.61
2017-02-04T02:12:22.222Z,20.58
2017-02-04T02:12:50.476Z,20.58
2017-02-04T02:13:18.536Z,20.6
2017-02-04T02:13:46.565Z,20.57
2017-02-04T02:14:14.777Z,20.61
2017-02-04T02:14:42.758Z,20.6
2017-02-04T02:15:10.992Z,20.63
2017-02-04T02:15:39.146Z,20.64
2017-02-04T02:16:07.250Z,20.67
2017-02-04T02:16:35.442Z,20.67
2017-02-04T02:17:03.480Z,20.71
2017-02-04T02:17:31.418Z,20.64
2017-02-04T02:17:59.611Z,20.68
2017-02-04T02:18:27.482Z,20.64
2017-02-04T02:18:55.620Z,20.66
2017-02-04T02:19:23.812Z,20.67
2017-02-04T02:19:51.972Z,20.66
2017-02-04T02:20:20.403Z,20.71
2017-02-04T02:20:48.635Z,20.68
2017-02-04T02:21:16.874Z,20.71
2017-02-04T02:21:44.869Z,20.71
2017-02-04T02:22:12.865Z,20.71
2017-02-04T02:22:41.028Z,20.74
2017-02-04T02:23:09.147Z,20.79
2017-02-04T02:23:37.307Z,20.75
2017-02-04T02:24:05.493Z,20.75
2017-02-04T02:24:33.597Z,20.76
2017-02-04T02:25:01.803Z,20.75
2017-02-04T02:25:29.967Z,20.75
2017-02-04T02:25:58.128Z,20.78
2017-02-04T02:26:26.177Z,20.79
2017-02-04T02:26:54.331Z,20.78
2017-02-04T02:27:22.482Z,20.82
2017-02-04T02:27:50.851Z,20.81
2017-02-04T02:28:18.955Z,20.82
2017-02-04T02:28:47.111Z,20.86
2017-02-04T02:29:15.284Z,20.81
2017-02-04T02:29:43.522Z,20.82
2017-02-04T02:30:11.546Z,20.76
2017-02-04T02:30:39.514Z,20.83
2017-02-04T02:31:07.635Z,20.81
2017-02-04T02:31:35.687Z,20.81
2017-02-04T02:32:03.934Z,20.81
2017-02-04T02:32:32.165Z,20.83
2017-02-04T02:33:00.524Z,20.83
2017-02-04T02:33:28.654Z,20.88
2017-02-04T02:33:56.701Z,20.88
2017-02-04T02:34:24.700Z,20.86
2017-02-04T02:34:52.950Z,20.86
2017-02-04T02:35:21.183Z,20.83
2017-02-04T02:35:49.292Z,20.82
2017-02-04T02:36:17.458Z,20.86
2017-02-04T02:36:45.415Z,20.88
2017-02-04T02:37:13.592Z,20.88
2017-02-04T02:37:41.799Z,20.88
2017-02-04T02:38:10.052Z,20.88
2017-02-04T02:38:38.137Z,20.85
2017-02-04T02:39:06.205Z,20.88
2017-02-04T02:39:34.371Z,20.82
2017-02-04T02:40:02.605Z,20.86
2017-02-04T02:40:30.717Z,20.86
2017-02-04T02:40:58.876Z,20.88
2017-02-04T02:41:27.012Z,20.85
2017-02-04T02:41:55.170Z,20.82
2017-02-04T02:42:23.140Z,20.85
2017-02-04T02:42:51.324Z,20.79
2017-02-04T02:43:19.567Z,20.75
2017-02-04T02:43:47.787Z,20.85
2017-02-04T02:44:15.958Z,20.86
2017-02-04T02:44:44.203Z,20.75
2017-02-04T02:45:12.223Z,20.82
2017-02-04T02:45:40.462Z,20.76
2017-02-04T02:46:08.469Z,20.82
2017-02-04T02:46:36.459Z,20.79
2017-02-04T02:47:04.715Z,20.82
2017-02-04T02:47:32.748Z,20.82
2017-02-04T02:48:00.725Z,20.82
2017-02-04T02:48:28.806Z,20.78
2017-02-04T02:48:57.075Z,20.79
2017-02-04T02:49:25.299Z,20.76
2017-02-04T02:49:53.373Z,20.75
2017-02-04T02:50:21.354Z,20.75
2017-02-04T02:50:49.431Z,20.78
2017-02-04T02:51:17.428Z,20.75
2017-02-04T02:51:45.538Z,20.72
2017-02-04T02:52:13.583Z,20.81
2017-02-04T02:52:41.531Z,20.75
2017-02-04T02:53:09.885Z,20.71
2017-02-04T02:53:37.904Z,20.74
2017-02-04T02:54:06.140Z,20.74
2017-02-04T02:54:34.190Z,20.78
2017-02-04T02:55:02.241Z,20.74
2017-02-04T02:55:30.297Z,20.71
2017-02-04T02:55:58.485Z,20.75
2017-02-04T02:56:26.510Z,20.74
2017-02-04T02:56:54.592Z,20.71
2017-02-04T02:57:22.574Z,20.72
2017-02-04T02:57:50.658Z,20.67
2017-02-04T02:58:18.928Z,20.67
2017-02-04T02:58:46.987Z,20.74
2017-02-04T02:59:14.853Z,20.74
2017-02-04T02:59:42.966Z,20.71
2017-02-04T03:00:11.186Z,20.75
2017-02-04T03:00:39.405Z,20.74
2017-02-04T03:01:07.645Z,20.74
2017-02-04T03:01:35.491Z,20.72
2017-02-04T03:02:03.512Z,20.76
2017-02-04T03:02:31.652Z,20.78
2017-02-04T03:02:59.686Z,20.72
2017-02-04T03:03:27.855Z,20.68
2017-02-04T03:03:56.104Z,20.79
2017-02-04T03:04:24.266Z,20.75
2017-02-04T03:04:52.324Z,20.71
2017-02-04T03:05:20.560Z,20.74
2017-02-04T03:05:48.865Z,20.74
2017-02-04T03:06:17.165Z,20.71
2017-02-04T03:06:45.233Z,20.72
2017-02-04T03:07:13.392Z,20.71
2017-02-04T03:07:41.559Z,20.71
2017-02-04T03:08:09.690Z,20.68
2017-02-04T03:08:37.724Z,20.67
2017-02-04T03:09:05.982Z,20.78
2017-02-04T03:09:34.142Z,20.76
2017-02-04T03:10:02.233Z,20.67
2017-02-04T03:10:30.400Z,20.68
2017-02-04T03:10:58.382Z,20.75
2017-02-04T03:11:26.610Z,20.71
2017-02-04T03:11:54.647Z,20.76
2017-02-04T03:12:22.795Z,20.78
2017-02-04T03:12:50.665Z,20.68
2017-02-04T03:13:18.827Z,20.75
2017-02-04T03:13:46.804Z,20.81
2017-02-04T03:14:14.910Z,20.79
2017-02-04T03:14:43.115Z,20.75
2017-02-04T03:15:11.267Z,20.79
2017-02-04T03:15:39.209Z,20.67
2017-02-04T03:16:07.449Z,20.79
2017-02-04T03:16:35.707Z,20.71
2017-02-04T03:17:03.962Z,20.76
2017-02-04T03:17:32.135Z,20.79
2017-02-04T03:18:00.399Z,20.78
2017-02-04T03:18:28.719Z,20.75
2017-02-04T03:18:56.673Z,20.71
2017-02-04T03:19:24.797Z,20.81
2017-02-04T03:19:52.966Z,20.79
2017-02-04T03:20:21.045Z,20.75
2017-02-04T03:20:49.305Z,20.81
2017-02-04T03:21:17.482Z,20.74
2017-02-04T03:21:45.622Z,20.79
2017-02-04T03:22:13.471Z,20.81
2017-02-04T03:22:41.426Z,20.74
2017-02-04T03:23:09.780Z,20.71
2017-02-04T03:23:38.016Z,20.74
2017-02-04T03:24:06.035Z,20.71
2017-02-04T03:24:34.124Z,20.75
2017-02-04T03:25:02.264Z,20.79
2017-02-04T03:25:30.315Z,20.79
2017-02-04T03:25:58.381Z,20.75
2017-02-04T03:26:26.452Z,20.74
2017-02-04T03:26:54.605Z,20.71
2017-02-04T03:27:22.669Z,20.81
2017-02-04T03:27:50.907Z,20.81
2017-02-04T03:28:18.846Z,20.79
2017-02-04T03:28:46.987Z,20.75
2017-02-04T03:29:15.146Z,20.72
2017-02-04T03:29:43.243Z,20.79
2017-02-04T03:30:11.405Z,20.74
2017-02-04T03:30:39.687Z,20.79
2017-02-04T03:31:07.867Z,20.75
2017-02-04T03:31:35.926Z,20.66
2017-02-04T03:32:03.953Z,20.81
2017-02-04T03:32:32.230Z,20.76
2017-02-04T03:33:00.415Z,20.78
2017-02-04T03:33:28.531Z,20.78
2017-02-04T03:33:56.726Z,20.78
2017-02-04T03:34:25.000Z,20.76
2017-02-04T03:34:53.157Z,20.79
2017-02-04T03:35:21.333Z,20.75
2017-02-04T03:35:49.478Z,20.76
2017-02-04T03:36:17.551Z,20.79
2017-02-04T03:36:45.667Z,20.75
2017-02-04T03:37:13.844Z,20.79
2017-02-04T03:37:41.994Z,20.79
2017-02-04T03:38:10.006Z,20.76
2017-02-04T03:38:38.284Z,20.72
2017-02-04T03:39:06.543Z,20.78
2017-02-04T03:39:34.582Z,20.79
2017-02-04T03:40:02.754Z,20.82
2017-02-04T03:40:30.798Z,20.81
2017-02-04T03:40:58.913Z,20.76
2017-02-04T03:41:26.881Z,20.76
2017-02-04T03:41:55.114Z,20.71
2017-02-04T03:42:23.380Z,20.79
2017-02-04T03:42:51.467Z,20.74
2017-02-04T03:43:19.818Z,20.78
2017-02-04T03:43:48.032Z,20.76
2017-02-04T03:44:16.171Z,20.72
2017-02-04T03:44:44.318Z,20.72
2017-02-04T03:45:12.602Z,20.75
2017-02-04T03:45:40.769Z,20.76
2017-02-04T03:46:08.845Z,20.81
2017-02-04T03:46:37.075Z,20.81
2017-02-04T03:47:05.167Z,20.78
2017-02-04T03:47:33.254Z,20.78
2017-02-04T03:48:01.364Z,20.72
2017-02-04T03:48:29.498Z,20.76
2017-02-04T03:48:57.662Z,20.78
2017-02-04T03:49:25.908Z,20.79
2017-02-04T03:49:54.082Z,20.76
2017-02-04T03:50:22.194Z,20.71
2017-02-04T03:50:50.445Z,20.79
2017-02-04T03:51:18.541Z,20.76
2017-02-04T03:51:46.587Z,20.79
2017-02-04T03:52:14.730Z,20.68
2017-02-04T03:52:42.918Z,20.78
2017-02-04T03:53:11.034Z,20.79
2017-02-04T03:53:39.196Z,20.81
2017-02-04T03:54:07.054Z,20.82
2017-02-04T03:54:35.319Z,20.71
2017-02-04T03:55:03.445Z,20.78
2017-02-04T03:55:31.413Z,20.81
2017-02-04T03:55:59.561Z,20.67
2017-02-04T03:56:27.721Z,20.66
2017-02-04T03:56:55.702Z,20.79
2017-02-04T03:57:23.838Z,20.78
2017-02-04T03:57:51.830Z,20.71
2017-02-04T03:58:19.988Z,20.78
2017-02-04T03:58:48.350Z,20.68
2017-02-04T03:59:16.393Z,20.75
2017-02-04T03:59:44.566Z,20.74
2017-02-04T04:00:12.690Z,20.66
2017-02-04T04:00:40.768Z,20.71
2017-02-04T04:01:09.002Z,20.71
2017-02-04T04:01:37.219Z,20.68
2017-02-04T04:02:05.395Z,20.68
2017-02-04T04:02:33.425Z,20.71
2017-02-04T04:03:01.488Z,20.75
2017-02-04T04:03:29.600Z,20.68
2017-02-04T04:03:57.558Z,20.79
2017-02-04T04:04:25.760Z,20.81
2017-02-04T04:04:53.795Z,20.79
2017-02-04T04:05:22.060Z,20.74
2017-02-04T04:05:50.302Z,20.76
2017-02-04T04:06:18.490Z,20.81
2017-02-04T04:06:46.531Z,20.78
2017-02-04T04:07:14.612Z,20.79
2017-02-04T04:07:42.717Z,20.78
2017-02-04T04:08:10.937Z,20.86
2017-02-04T04:08:39.065Z,20.91
2017-02-04T04:09:06.936Z,20.85
2017-02-04T04:09:35.018Z,20.88
2017-02-04T04:10:02.982Z,20.85
2017-02-04T04:10:31.093Z,20.83
2017-02-04T04:10:59.242Z,20.88
2017-02-04T04:11:27.366Z,20.9
2017-02-04T04:11:55.461Z,20.94
2017-02-04T04:12:23.625Z,20.94
2017-02-04T04:12:51.776Z,21.01
2017-02-04T04:13:19.839Z,20.98
2017-02-04T04:13:48.193Z,20.96
2017-02-04T04:14:16.237Z,20.96
2017-02-04T04:14:44.472Z,21.04
2017-02-04T04:15:12.477Z,21.03
2017-02-04T04:15:40.550Z,21.06
2017-02-04T04:16:08.549Z,21.03
2017-02-04T04:16:36.636Z,21.03
2017-02-04T04:17:04.748Z,21.03
2017-02-04T04:17:32.951Z,21
2017-02-04T04:18:01.162Z,20.97
2017-02-04T04:18:29.195Z,21.03
2017-02-04T04:18:57.271Z,21.04
2017-02-04T04:19:25.292Z,21.01
2017-02-04T04:19:53.352Z,21.03
2017-02-04T04:20:21.512Z,21.04
2017-02-04T04:20:49.687Z,20.97
2017-02-04T04:21:17.847Z,21.04
2017-02-04T04:21:46.051Z,20.98
2017-02-04T04:22:14.224Z,20.98
2017-02-04T04:22:42.336Z,21
2017-02-04T04:23:10.592Z,21.03
2017-02-04T04:23:38.546Z,20.94
2017-02-04T04:24:06.757Z,20.91
2017-02-04T04:24:34.806Z,20.94
2017-02-04T04:25:03.126Z,20.93
2017-02-04T04:25:31.265Z,20.93
2017-02-04T04:25:59.551Z,20.88
2017-02-04T04:26:27.634Z,20.86
2017-02-04T04:26:55.794Z,20.86
2017-02-04T04:27:23.921Z,20.88
2017-02-04T04:27:52.023Z,20.85
2017-02-04T04:28:20.070Z,20.93
2017-02-04T04:28:48.336Z,20.93
2017-02-04T04:29:16.519Z,20.97
2017-02-04T04:29:44.688Z,20.97
2017-02-04T04:30:12.816Z,21
2017-02-04T04:30:41.049Z,20.9
2017-02-04T04:31:09.195Z,21
2017-02-04T04:31:37.429Z,20.93
2017-02-04T04:32:05.393Z,20.98
2017-02-04T04:32:33.689Z,21
2017-02-04T04:33:01.930Z,21.03
2017-02-04T04:33:30.087Z,21.01
2017-02-04T04:33:58.438Z,21.11
2017-02-04T04:34:26.513Z,21.01
2017-02-04T04:34:54.501Z,21.03
2017-02-04T04:35:22.608Z,21.01
2017-02-04T04:35:50.950Z,21.06
2017-02-04T04:36:19.117Z,21
2017-02-04T04:36:47.284Z,20.98
2017-02-04T04:37:15.374Z,21.03
2017-02-04T04:37:43.445Z,20.98
2017-02-04T04:38:11.614Z,21.01
2017-02-04T04:38:39.622Z,21.03
2017-02-04T04:39:07.981Z,21.03
2017-02-04T04:39:36.042Z,20.98
2017-02-04T04:40:04.083Z,21.03
2017-02-04T04:40:32.225Z,21.01
2017-02-04T04:41:00.518Z,21.09
2017-02-04T04:41:28.653Z,21.01
2017-02-04T04:41:56.754Z,21.06
2017-02-04T04:42:24.898Z,20.98
2017-02-04T04:42:53.115Z,21.06
2017-02-04T04:43:21.199Z,21.01
2017-02-04T04:43:49.184Z,21.08
2017-02-04T04:44:17.405Z,21.01
2017-02-04T04:44:45.497Z,21.06
2017-02-04T04:45:13.545Z,21.04
2017-02-04T04:45:41.796Z,21.13
2017-02-04T04:46:09.724Z,21.09
2017-02-04T04:46:37.785Z,21.15
2017-02-04T04:47:05.952Z,21.12
2017-02-04T04:47:34.071Z,21.04
2017-02-04T04:48:02.259Z,21.13
2017-02-04T04:48:30.258Z,21.13
2017-02-04T04:48:58.322Z,21.13
2017-02-04T04:49:26.528Z,21.16
2017-02-04T04:49:54.720Z,21.21
2017-02-04T04:50:22.998Z,21.15
2017-02-04T04:50:51.157Z,21.13
2017-02-04T04:51:19.340Z,21.13
2017-02-04T04:51:47.427Z,21.15
2017-02-04T04:52:15.683Z,21.11
2017-02-04T04:52:43.737Z,21.15
2017-02-04T04:53:11.946Z,21.13
2017-02-04T04:53:40.213Z,21.16
2017-02-04T04:54:08.423Z,21.19
2017-02-04T04:54:36.546Z,21.16
2017-02-04T04:55:04.756Z,21.15
2017-02-04T04:55:32.866Z,21.18
2017-02-04T04:56:01.158Z,21.19
2017-02-04T04:56:29.365Z,21.19
2017-02-04T04:56:57.484Z,21.13
2017-02-04T04:57:25.632Z,21.13
2017-02-04T04:57:53.777Z,21.21
2017-02-04T04:58:21.740Z,21.22
2017-02-04T04:58:49.967Z,21.15
2017-02-04T04:59:18.270Z,21.16
2017-02-04T04:59:46.524Z,21.18
2017-02-04T05:00:14.751Z,21.15
2017-02-04T05:00:42.887Z,21.13
2017-02-04T05:01:10.965Z,21.09
2017-02-04T05:01:39.141Z,21.15
2017-02-04T05:02:07.367Z,21.12
2017-02-04T05:02:35.474Z,21.12
2017-02-04T05:03:03.617Z,21.06
2017-02-04T05:03:31.916Z,21.13
2017-02-04T05:04:00.147Z,21.11
2017-02-04T05:04:28.339Z,21.03
2017-02-04T05:04:56.391Z,20.96
2017-02-04T05:05:24.713Z,21.04
2017-02-04T05:05:52.759Z,21.01
2017-02-04T05:06:20.685Z,21
2017-02-04T05:06:48.841Z,21.01
2017-02-04T05:07:16.903Z,21.08
2017-02-04T05:07:45.150Z,21
2017-02-04T05:08:13.152Z,21
2017-02-04T05:08:41.315Z,21.04
2017-02-04T05:09:09.505Z,20.93
2017-02-04T05:09:37.537Z,20.88
2017-02-04T05:10:05.723Z,20.94
2017-02-04T05:10:33.998Z,20.93
2017-02-04T05:11:02.298Z,20.96
2017-02-04T05:11:30.489Z,20.96
2017-02-04T05:11:58.574Z,20.94
2017-02-04T05:12:26.685Z,20.96
2017-02-04T05:12:54.929Z,20.86
2017-02-04T05:13:23.127Z,20.94
2017-02-04T05:13:51.178Z,20.9
2017-02-04T05:14:19.250Z,20.88
2017-02-04T05:14:47.446Z,20.85
2017-02-04T05:15:15.487Z,20.94
2017-02-04T05:15:43.661Z,20.9
2017-02-04T05:16:11.837Z,20.85
2017-02-04T05:16:40.011Z,20.88
2017-02-04T05:17:08.095Z,20.9
2017-02-04T05:17:36.255Z,20.97
2017-02-04T05:18:04.499Z,20.85
2017-02-04T05:18:32.780Z,20.88
2017-02-04T05:19:00.727Z,20.82
2017-02-04T05:19:28.800Z,20.86
2017-02-04T05:19:56.909Z,20.88
2017-02-04T05:20:25.083Z,20.9
2017-02-04T05:20:53.189Z,20.9
2017-02-04T05:21:21.271Z,20.93
2017-02-04T05:21:49.566Z,20.9
2017-02-04T05:22:17.627Z,20.88
2017-02-04T05:22:45.841Z,20.88
2017-02-04T05:23:13.943Z,20.88
2017-02-04T05:23:42.093Z,20.9
2017-02-04T05:24:10.033Z,20.86
2017-02-04T05:24:38.375Z,20.88
2017-02-04T05:25:06.405Z,20.9
2017-02-04T05:25:34.636Z,20.9
2017-02-04T05:26:02.869Z,20.88
2017-02-04T05:26:31.154Z,20.85
2017-02-04T05:26:59.427Z,20.83
2017-02-04T05:27:27.601Z,20.93
2017-02-04T05:27:55.676Z,20.93
2017-02-04T05:28:23.728Z,20.88
2017-02-04T05:28:51.805Z,20.88
2017-02-04T05:29:19.972Z,20.86
2017-02-04T05:29:48.065Z,20.82
2017-02-04T05:30:16.302Z,20.82
2017-02-04T05:30:44.346Z,20.82
2017-02-04T05:31:12.460Z,20.82
2017-02-04T05:31:40.533Z,20.82
2017-02-04T05:32:08.542Z,20.79
2017-02-04T05:32:36.693Z,20.79
2017-02-04T05:33:04.720Z,20.74
2017-02-04T05:33:32.765Z,20.79
2017-02-04T05:34:01.056Z,20.78
2017-02-04T05:34:29.340Z,20.79
2017-02-04T05:34:57.397Z,20.74
2017-02-04T05:35:25.466Z,20.76
2017-02-04T05:35:53.690Z,20.78
2017-02-04T05:36:21.829Z,20.78
2017-02-04T05:36:49.945Z,20.79
2017-02-04T05:37:18.019Z,20.71
2017-02-04T05:37:46.069Z,20.66
2017-02-04T05:38:14.260Z,20.67
2017-02-04T05:38:42.388Z,20.66
2017-02-04T05:39:10.459Z,20.67
2017-02-04T05:39:38.667Z,20.71
2017-02-04T05:40:06.727Z,20.68
2017-02-04T05:40:34.893Z,20.68
2017-02-04T05:41:03.116Z,20.67
2017-02-04T05:41:31.251Z,20.66
2017-02-04T05:41:59.495Z,20.64
2017-02-04T05:42:27.489Z,20.64
2017-02-04T05:42:55.509Z,20.67
2017-02-04T05:43:23.578Z,20.71
2017-02-04T05:43:51.655Z,20.6
2017-02-04T05:44:19.599Z,20.68
2017-02-04T05:44:47.967Z,20.66
2017-02-04T05:45:16.023Z,20.67
2017-02-04T05:45:43.986Z,20.61
2017-02-04T05:46:12.294Z,20.64
2017-02-04T05:46:40.509Z,20.58
2017-02-04T05:47:08.698Z,20.57
2017-02-04T05:47:36.831Z,20.6
2017-02-04T05:48:04.882Z,20.6
2017-02-04T05:48:33.122Z,20.61
2017-02-04T05:49:01.384Z,20.56
2017-02-04T05:49:29.544Z,20.6
2017-02-04T05:49:57.886Z,20.58
2017-02-04T05:50:25.879Z,20.51
2017-02-04T05:50:53.947Z,20.46
2017-02-04T05:51:22.147Z,20.56
2017-02-04T05:51:50.268Z,20.44
2017-02-04T05:52:18.492Z,20.42
2017-02-04T05:52:46.613Z,20.42
2017-02-04T05:53:14.586Z,20.46
2017-02-04T05:53:42.818Z,20.51
2017-02-04T05:54:10.915Z,20.42
2017-02-04T05:54:39.202Z,20.53
2017-02-04T05:55:07.406Z,20.57
2017-02-04T05:55:35.474Z,20.58
2017-02-04T05:56:03.809Z,20.42
2017-02-04T05:56:32.138Z,20.51
2017-02-04T05:57:00.388Z,20.46
2017-02-04T05:57:28.549Z,20.51
2017-02-04T05:57:56.701Z,20.49
2017-02-04T05:58:24.742Z,20.42
2017-02-04T05:58:52.890Z,20.49
2017-02-04T05:59:20.871Z,20.41
2017-02-04T05:59:49.214Z,20.48
2017-02-04T06:00:17.274Z,20.46
2017-02-04T06:00:45.307Z,20.51
2017-02-04T06:01:13.263Z,20.49
2017-02-04T06:01:41.548Z,20.48
2017-02-04T06:02:09.607Z,20.49
2017-02-04T06:02:37.800Z,20.42
2017-02-04T06:03:05.963Z,20.49